This is the latest recevied weather packets stored in our database for station/object KE7KUS-14. If no packets are shown the sender has not sent any weather packets the latest 10 day(s).
| Time | Temp. | Humidity | Pressure | Rain* | Wind** | Luminosity | Snow |
|---|---|---|---|---|---|---|---|
| 1777630325 | 7.78° C | 79% | 1021.1 hPa | 0.25 mm | - | 0 W/m² | - |
| 1777629741 | 8.89° C | 73% | 1021.1 hPa | 0 mm | - | 0 W/m² | - |
| 1777626106 | 8.89° C | 70% | 1021.2 hPa | 0 mm | - | 0 W/m² | - |
| 1777625521 | 8.89° C | 70% | 1021.4 hPa | 0 mm | - | 0 W/m² | - |
| 1777624288 | 8.89° C | 68% | 1021.7 hPa | 0 mm | - | 0 W/m² | - |
| 1777623702 | 9.44° C | 68% | 1021.7 hPa | 0 mm | - | 0 W/m² | - |
| 1777623118 | 9.44° C | 68% | 1021.9 hPa | 0 mm | - | 0 W/m² | - |
| 1777616514 | 7.78° C | 72% | 1022.8 hPa | 0 mm | - | 0 W/m² | - |
| 1777615325 | 7.22° C | 72% | 1023 hPa | 0 mm | - | 0 W/m² | - |
| 1777609935 | 10° C | 64% | 1022.8 hPa | 0 mm | - | 0 W/m² | - |
| 1777603960 | 10° C | 68% | 1022.6 hPa | 0 mm | - | 0 W/m² | - |
| 1777602143 | 10.56° C | 67% | 1022.4 hPa | 0 mm | - | 0 W/m² | - |
| 1777599738 | 10.56° C | 66% | 1022.1 hPa | 0 mm | - | 3 W/m² | - |
| 1777596187 | 11.11° C | 63% | 1021.7 hPa | 0 mm | - | 41 W/m² | - |
| 1777594932 | 11.67° C | 63% | 1021.8 hPa | 0 mm | - | 87 W/m² | - |
| 1777594347 | 12.22° C | 61% | 1021.9 hPa | 0 mm | - | 84 W/m² | - |
| 1777593764 | 12.22° C | 59% | 1021.8 hPa | 0 mm | - | 106 W/m² | - |
| 1777591361 | 13.33° C | 48% | 1021.7 hPa | 0 mm | - | 71 W/m² | - |
| 1777581747 | 14.44° C | 41% | 1022.9 hPa | 0 mm | - | 217 W/m² | - |
| 1777581163 | 13.89° C | 42% | 1022.6 hPa | 0 mm | - | 225 W/m² | - |
| 1777580578 | 14.44° C | 41% | 1022.9 hPa | 0 mm | - | 280 W/m² | - |
| 1777572783 | 13.89° C | 38% | 1023.9 hPa | 0 mm | - | 230 W/m² | - |
| 1777571486 | 14.44° C | 37% | 1024.2 hPa | 0 mm | - | 264 W/m² | - |
| 1777569668 | 14.44° C | 34% | 1024.3 hPa | 0 mm | - | 281 W/m² | - |
| 1777564925 | 13.89° C | 31% | 1024.1 hPa | 0 mm | - | 152 W/m² | - |
* Rain latest hour (hover to see other rain measurements)
** Current wind speed in m/s (hover to see current wind gust speed)